createdAt,value
2023-03-05T00:12:25.888Z,45.59
2023-03-05T00:27:25.932Z,45.15
2023-03-05T00:42:25.467Z,45.42
2023-03-05T00:57:25.972Z,45.41
2023-03-05T01:12:26.004Z,45.93
2023-03-05T01:27:25.249Z,46.08
2023-03-05T01:42:25.555Z,45.35
2023-03-05T01:57:25.616Z,44.38
2023-03-05T02:12:25.857Z,44.27
2023-03-05T02:42:25.771Z,44.53
2023-03-05T02:57:25.275Z,44.01
2023-03-05T03:12:26.090Z,43.65
2023-03-05T03:27:25.260Z,43.56
2023-03-05T03:42:25.821Z,45.01
2023-03-05T03:57:25.810Z,44.74
2023-03-05T04:12:25.480Z,43.88
2023-03-05T04:27:25.230Z,44.2
2023-03-05T04:42:25.663Z,43.69
2023-03-05T04:57:25.388Z,47.81
2023-03-05T05:12:25.630Z,42.3
2023-03-05T05:27:25.922Z,42.47
2023-03-05T05:42:25.715Z,43
2023-03-05T05:57:25.281Z,43.15
2023-03-05T06:12:25.667Z,43.57
2023-03-05T06:27:25.973Z,41.11
2023-03-05T06:42:25.877Z,39
2023-03-05T06:57:25.328Z,33.82
2023-03-05T07:12:25.932Z,32.25
2023-03-05T07:27:25.717Z,33.87
2023-03-05T07:42:25.983Z,23.89
2023-03-05T07:57:25.955Z,23.38
2023-03-05T08:12:25.385Z,23.43
2023-03-05T08:27:25.713Z,21.5
2023-03-05T08:42:26.213Z,18.14
2023-03-05T09:12:25.509Z,23.34
2023-03-05T09:27:25.753Z,20.33
2023-03-05T09:42:25.740Z,29.3
2023-03-05T09:57:25.823Z,29.2
2023-03-05T10:12:26.084Z,31.49
2023-03-05T10:27:25.825Z,34.86
2023-03-05T10:42:25.236Z,34.98
2023-03-05T10:57:25.959Z,35.24
2023-03-05T11:12:25.944Z,36.98
2023-03-05T11:27:25.602Z,37.82
2023-03-05T11:42:25.822Z,34.96
2023-03-05T11:57:25.861Z,33.02
2023-03-05T12:12:25.842Z,30.16
2023-03-05T12:27:25.350Z,27.3
2023-03-05T12:42:25.724Z,28.21
2023-03-05T12:57:25.949Z,26.1
2023-03-05T13:12:25.899Z,24.1
2023-03-05T13:27:25.431Z,23.61
2023-03-05T13:42:25.307Z,22.48
2023-03-05T13:57:26.042Z,22.54
2023-03-05T14:12:27.070Z,22.24
2023-03-05T14:27:26.071Z,21.69
2023-03-05T14:42:27.926Z,24.14
2023-03-05T14:57:25.849Z,22.62
2023-03-05T15:12:25.793Z,23.65
2023-03-05T15:27:25.766Z,23.4
2023-03-05T15:42:31.201Z,25.36
2023-03-05T15:57:26.067Z,24.11
2023-03-05T16:12:26.036Z,26.3
2023-03-05T16:27:26.004Z,25.67
2023-03-05T16:42:25.290Z,27.21
2023-03-05T16:57:25.758Z,30.27
2023-03-05T17:12:25.886Z,31.84
2023-03-05T17:27:25.696Z,31.45
2023-03-05T17:42:25.504Z,28.11
2023-03-05T17:57:25.566Z,24.65
2023-03-05T18:12:25.328Z,26.62
2023-03-05T18:27:25.707Z,27.51
2023-03-05T18:42:26.010Z,32.16
2023-03-05T18:57:25.229Z,28.88
2023-03-05T19:12:25.236Z,25.19
2023-03-05T19:27:25.384Z,33.34
2023-03-05T19:42:25.505Z,26.42
2023-03-05T19:57:25.809Z,27.77
2023-03-05T20:12:25.818Z,26.33
2023-03-05T20:27:25.702Z,28.61
2023-03-05T20:42:25.677Z,25.07
2023-03-05T20:57:26.133Z,25.12
2023-03-05T21:12:25.696Z,27.31
2023-03-05T21:27:25.277Z,26.78
2023-03-05T21:42:25.530Z,28.29
2023-03-05T21:57:25.305Z,19.61
2023-03-05T22:12:25.307Z,21.14
2023-03-05T22:27:25.386Z,20.59
2023-03-05T22:42:25.644Z,19.05
2023-03-05T22:57:25.821Z,19.26
2023-03-05T23:12:25.649Z,19.19
2023-03-05T23:27:25.794Z,22.42
2023-03-05T23:42:25.741Z,21.86
2023-03-05T23:57:25.930Z,20.25
